sensor_id;sensor_type;location;lat;lon;timestamp;P1;durP1;ratioP1;P2;durP2;ratioP2
55879;SDS011;41802;51.564;-1.838;2022-08-03T00:00:48;10.50;;;1.80;;
55879;SDS011;41802;51.564;-1.838;2022-08-03T00:03:15;8.18;;;1.63;;
55879;SDS011;41802;51.564;-1.838;2022-08-03T00:05:41;7.20;;;1.40;;
55879;SDS011;41802;51.564;-1.838;2022-08-03T00:08:09;9.15;;;2.15;;
55879;SDS011;41802;51.564;-1.838;2022-08-03T00:10:37;6.60;;;1.88;;
55879;SDS011;41802;51.564;-1.838;2022-08-03T00:13:03;8.73;;;1.73;;
55879;SDS011;41802;51.564;-1.838;2022-08-03T00:15:30;9.02;;;2.00;;
55879;SDS011;41802;51.564;-1.838;2022-08-03T00:17:56;9.73;;;2.30;;
55879;SDS011;41802;51.564;-1.838;2022-08-03T00:20:23;9.27;;;1.75;;
55879;SDS011;41802;51.564;-1.838;2022-08-03T00:22:50;8.02;;;1.40;;
55879;SDS011;41802;51.564;-1.838;2022-08-03T00:25:18;8.57;;;1.63;;
55879;SDS011;41802;51.564;-1.838;2022-08-03T00:27:45;7.03;;;1.77;;
55879;SDS011;41802;51.564;-1.838;2022-08-03T00:30:11;9.70;;;1.90;;
55879;SDS011;41802;51.564;-1.838;2022-08-03T00:32:38;6.35;;;1.90;;
55879;SDS011;41802;51.564;-1.838;2022-08-03T00:35:05;8.68;;;1.30;;
55879;SDS011;41802;51.564;-1.838;2022-08-03T00:37:32;8.83;;;1.67;;
55879;SDS011;41802;51.564;-1.838;2022-08-03T00:39:58;8.48;;;1.33;;
55879;SDS011;41802;51.564;-1.838;2022-08-03T00:42:26;11.23;;;1.55;;
55879;SDS011;41802;51.564;-1.838;2022-08-03T00:44:52;9.73;;;1.42;;
55879;SDS011;41802;51.564;-1.838;2022-08-03T00:47:19;7.18;;;1.20;;
55879;SDS011;41802;51.564;-1.838;2022-08-03T00:49:45;6.97;;;1.37;;
55879;SDS011;41802;51.564;-1.838;2022-08-03T00:52:12;7.80;;;1.63;;
55879;SDS011;41802;51.564;-1.838;2022-08-03T00:54:39;6.97;;;1.52;;
55879;SDS011;41802;51.564;-1.838;2022-08-03T00:57:06;6.07;;;1.10;;
55879;SDS011;41802;51.564;-1.838;2022-08-03T00:59:34;7.63;;;1.60;;
55879;SDS011;41802;51.564;-1.838;2022-08-03T01:02:03;7.93;;;1.70;;
55879;SDS011;41802;51.564;-1.838;2022-08-03T01:04:32;10.45;;;1.73;;
55879;SDS011;41802;51.564;-1.838;2022-08-03T01:07:00;7.72;;;1.48;;
55879;SDS011;41802;51.564;-1.838;2022-08-03T01:09:30;9.10;;;1.30;;
55879;SDS011;41802;51.564;-1.838;2022-08-03T01:12:13;6.20;;;1.50;;
55879;SDS011;41802;51.564;-1.838;2022-08-03T01:14:43;7.60;;;1.43;;
55879;SDS011;41802;51.564;-1.838;2022-08-03T01:17:13;9.35;;;2.08;;
55879;SDS011;41802;51.564;-1.838;2022-08-03T01:19:42;8.55;;;1.92;;
55879;SDS011;41802;51.564;-1.838;2022-08-03T01:22:17;8.75;;;1.60;;
55879;SDS011;41802;51.564;-1.838;2022-08-03T01:24:54;7.93;;;1.77;;
55879;SDS011;41802;51.564;-1.838;2022-08-03T01:27:22;9.73;;;2.10;;
55879;SDS011;41802;51.564;-1.838;2022-08-03T01:29:54;7.75;;;1.50;;
55879;SDS011;41802;51.564;-1.838;2022-08-03T01:32:24;8.35;;;1.27;;
55879;SDS011;41802;51.564;-1.838;2022-08-03T01:34:57;6.20;;;1.30;;
55879;SDS011;41802;51.564;-1.838;2022-08-03T01:37:25;8.00;;;1.25;;
55879;SDS011;41802;51.564;-1.838;2022-08-03T01:39:54;7.77;;;1.40;;
55879;SDS011;41802;51.564;-1.838;2022-08-03T01:42:21;7.97;;;1.20;;
55879;SDS011;41802;51.564;-1.838;2022-08-03T01:44:49;8.98;;;1.30;;
55879;SDS011;41802;51.564;-1.838;2022-08-03T01:47:19;9.52;;;1.70;;
55879;SDS011;41802;51.564;-1.838;2022-08-03T01:49:46;12.07;;;1.92;;
55879;SDS011;41802;51.564;-1.838;2022-08-03T01:52:14;8.00;;;1.80;;
55879;SDS011;41802;51.564;-1.838;2022-08-03T01:54:43;7.88;;;1.20;;
55879;SDS011;41802;51.564;-1.838;2022-08-03T01:57:10;7.88;;;1.58;;
55879;SDS011;41802;51.564;-1.838;2022-08-03T01:59:37;8.38;;;1.40;;
55879;SDS011;41802;51.564;-1.838;2022-08-03T02:02:05;6.22;;;1.63;;
55879;SDS011;41802;51.564;-1.838;2022-08-03T02:04:34;6.70;;;1.50;;
55879;SDS011;41802;51.564;-1.838;2022-08-03T02:07:01;5.38;;;1.30;;
55879;SDS011;41802;51.564;-1.838;2022-08-03T02:09:27;6.72;;;1.85;;
55879;SDS011;41802;51.564;-1.838;2022-08-03T02:11:54;7.93;;;1.25;;
55879;SDS011;41802;51.564;-1.838;2022-08-03T02:14:22;8.50;;;1.10;;
55879;SDS011;41802;51.564;-1.838;2022-08-03T02:16:49;9.00;;;1.10;;
55879;SDS011;41802;51.564;-1.838;2022-08-03T02:19:17;5.63;;;1.40;;
55879;SDS011;41802;51.564;-1.838;2022-08-03T02:21:45;5.30;;;1.13;;
55879;SDS011;41802;51.564;-1.838;2022-08-03T02:24:12;4.18;;;1.40;;
55879;SDS011;41802;51.564;-1.838;2022-08-03T02:26:39;6.25;;;1.02;;
55879;SDS011;41802;51.564;-1.838;2022-08-03T02:29:08;8.13;;;1.73;;
55879;SDS011;41802;51.564;-1.838;2022-08-03T02:31:37;9.18;;;1.20;;
55879;SDS011;41802;51.564;-1.838;2022-08-03T02:34:05;6.93;;;1.58;;
55879;SDS011;41802;51.564;-1.838;2022-08-03T02:36:35;5.97;;;1.55;;
55879;SDS011;41802;51.564;-1.838;2022-08-03T02:39:05;7.35;;;1.02;;
55879;SDS011;41802;51.564;-1.838;2022-08-03T02:41:35;10.10;;;1.27;;
55879;SDS011;41802;51.564;-1.838;2022-08-03T02:44:03;8.40;;;1.20;;
55879;SDS011;41802;51.564;-1.838;2022-08-03T02:46:33;5.82;;;1.00;;
55879;SDS011;41802;51.564;-1.838;2022-08-03T02:49:01;7.78;;;1.58;;
55879;SDS011;41802;51.564;-1.838;2022-08-03T02:51:29;8.77;;;1.00;;
55879;SDS011;41802;51.564;-1.838;2022-08-03T02:53:57;6.47;;;1.03;;
55879;SDS011;41802;51.564;-1.838;2022-08-03T02:56:27;8.07;;;0.90;;
55879;SDS011;41802;51.564;-1.838;2022-08-03T02:58:54;6.18;;;0.85;;
55879;SDS011;41802;51.564;-1.838;2022-08-03T03:01:21;9.00;;;1.52;;
55879;SDS011;41802;51.564;-1.838;2022-08-03T03:03:48;6.68;;;1.20;;
55879;SDS011;41802;51.564;-1.838;2022-08-03T03:06:15;3.77;;;0.97;;
55879;SDS011;41802;51.564;-1.838;2022-08-03T03:08:42;6.78;;;1.45;;
55879;SDS011;41802;51.564;-1.838;2022-08-03T03:11:08;5.35;;;1.50;;
55879;SDS011;41802;51.564;-1.838;2022-08-03T03:13:37;4.90;;;0.63;;
55879;SDS011;41802;51.564;-1.838;2022-08-03T03:16:04;7.03;;;1.38;;
55879;SDS011;41802;51.564;-1.838;2022-08-03T03:18:32;6.40;;;1.00;;
55879;SDS011;41802;51.564;-1.838;2022-08-03T03:20:59;5.95;;;1.48;;
55879;SDS011;41802;51.564;-1.838;2022-08-03T03:23:26;5.63;;;1.25;;
55879;SDS011;41802;51.564;-1.838;2022-08-03T03:25:53;5.90;;;1.23;;
55879;SDS011;41802;51.564;-1.838;2022-08-03T03:28:20;5.93;;;1.00;;
55879;SDS011;41802;51.564;-1.838;2022-08-03T03:30:49;5.63;;;1.30;;
55879;SDS011;41802;51.564;-1.838;2022-08-03T03:33:15;4.63;;;1.23;;
55879;SDS011;41802;51.564;-1.838;2022-08-03T03:35:42;6.57;;;1.27;;
55879;SDS011;41802;51.564;-1.838;2022-08-03T03:38:10;4.90;;;1.20;;
55879;SDS011;41802;51.564;-1.838;2022-08-03T03:40:37;6.03;;;1.00;;
55879;SDS011;41802;51.564;-1.838;2022-08-03T03:43:06;8.33;;;1.20;;
55879;SDS011;41802;51.564;-1.838;2022-08-03T03:45:33;6.32;;;1.05;;
55879;SDS011;41802;51.564;-1.838;2022-08-03T03:48:02;3.97;;;0.90;;
55879;SDS011;41802;51.564;-1.838;2022-08-03T03:50:28;5.22;;;1.08;;
55879;SDS011;41802;51.564;-1.838;2022-08-03T03:52:56;6.13;;;1.05;;
55879;SDS011;41802;51.564;-1.838;2022-08-03T03:55:22;4.97;;;0.90;;
55879;SDS011;41802;51.564;-1.838;2022-08-03T03:57:49;5.03;;;1.08;;
55879;SDS011;41802;51.564;-1.838;2022-08-03T04:00:16;6.80;;;1.55;;
55879;SDS011;41802;51.564;-1.838;2022-08-03T04:02:43;3.55;;;1.10;;
55879;SDS011;41802;51.564;-1.838;2022-08-03T04:05:11;5.28;;;1.00;;
55879;SDS011;41802;51.564;-1.838;2022-08-03T04:07:57;6.37;;;1.03;;
55879;SDS011;41802;51.564;-1.838;2022-08-03T04:10:42;4.25;;;1.10;;
55879;SDS011;41802;51.564;-1.838;2022-08-03T04:13:27;5.30;;;1.10;;
55879;SDS011;41802;51.564;-1.838;2022-08-03T04:15:54;5.65;;;0.90;;
55879;SDS011;41802;51.564;-1.838;2022-08-03T04:18:22;4.43;;;1.20;;
55879;SDS011;41802;51.564;-1.838;2022-08-03T04:20:52;4.13;;;1.00;;
55879;SDS011;41802;51.564;-1.838;2022-08-03T04:23:19;7.43;;;0.95;;
55879;SDS011;41802;51.564;-1.838;2022-08-03T04:25:48;5.70;;;1.08;;
55879;SDS011;41802;51.564;-1.838;2022-08-03T04:28:14;4.65;;;0.70;;
55879;SDS011;41802;51.564;-1.838;2022-08-03T04:30:41;5.13;;;0.95;;
55879;SDS011;41802;51.564;-1.838;2022-08-03T04:33:12;4.33;;;0.97;;
55879;SDS011;41802;51.564;-1.838;2022-08-03T04:35:40;4.43;;;0.88;;
55879;SDS011;41802;51.564;-1.838;2022-08-03T04:38:10;5.65;;;1.00;;
55879;SDS011;41802;51.564;-1.838;2022-08-03T04:40:38;7.57;;;0.93;;
55879;SDS011;41802;51.564;-1.838;2022-08-03T04:43:06;4.43;;;0.90;;
55879;SDS011;41802;51.564;-1.838;2022-08-03T04:45:33;4.90;;;0.90;;
55879;SDS011;41802;51.564;-1.838;2022-08-03T04:48:00;6.00;;;0.93;;
55879;SDS011;41802;51.564;-1.838;2022-08-03T04:50:27;4.80;;;0.82;;
55879;SDS011;41802;51.564;-1.838;2022-08-03T04:52:54;6.85;;;0.90;;
55879;SDS011;41802;51.564;-1.838;2022-08-03T04:55:25;5.20;;;0.82;;
55879;SDS011;41802;51.564;-1.838;2022-08-03T04:57:52;4.30;;;0.90;;
55879;SDS011;41802;51.564;-1.838;2022-08-03T05:00:19;5.72;;;0.70;;
55879;SDS011;41802;51.564;-1.838;2022-08-03T05:02:46;4.85;;;1.00;;
55879;SDS011;41802;51.564;-1.838;2022-08-03T05:05:14;4.05;;;0.90;;
55879;SDS011;41802;51.564;-1.838;2022-08-03T05:07:40;6.53;;;0.80;;
55879;SDS011;41802;51.564;-1.838;2022-08-03T05:10:07;4.13;;;0.83;;
55879;SDS011;41802;51.564;-1.838;2022-08-03T05:12:36;4.28;;;1.00;;
55879;SDS011;41802;51.564;-1.838;2022-08-03T05:15:03;3.25;;;0.60;;
55879;SDS011;41802;51.564;-1.838;2022-08-03T05:17:30;3.70;;;0.82;;
55879;SDS011;41802;51.564;-1.838;2022-08-03T05:19:58;3.80;;;0.85;;
55879;SDS011;41802;51.564;-1.838;2022-08-03T05:22:24;4.63;;;0.90;;
55879;SDS011;41802;51.564;-1.838;2022-08-03T05:24:51;3.75;;;0.90;;
55879;SDS011;41802;51.564;-1.838;2022-08-03T05:27:18;5.97;;;0.88;;
55879;SDS011;41802;51.564;-1.838;2022-08-03T05:29:46;6.53;;;1.13;;
55879;SDS011;41802;51.564;-1.838;2022-08-03T05:32:12;3.30;;;0.70;;
55879;SDS011;41802;51.564;-1.838;2022-08-03T05:34:39;7.13;;;0.87;;
55879;SDS011;41802;51.564;-1.838;2022-08-03T05:37:06;3.63;;;0.60;;
55879;SDS011;41802;51.564;-1.838;2022-08-03T05:39:32;5.50;;;1.17;;
55879;SDS011;41802;51.564;-1.838;2022-08-03T05:41:59;4.82;;;0.70;;
55879;SDS011;41802;51.564;-1.838;2022-08-03T05:44:26;3.40;;;0.55;;
55879;SDS011;41802;51.564;-1.838;2022-08-03T05:46:54;6.97;;;1.20;;
55879;SDS011;41802;51.564;-1.838;2022-08-03T05:49:21;4.93;;;0.95;;
55879;SDS011;41802;51.564;-1.838;2022-08-03T05:51:48;4.35;;;1.00;;
55879;SDS011;41802;51.564;-1.838;2022-08-03T05:54:15;3.75;;;0.90;;
55879;SDS011;41802;51.564;-1.838;2022-08-03T05:56:41;3.70;;;0.73;;
55879;SDS011;41802;51.564;-1.838;2022-08-03T05:59:08;4.57;;;0.97;;
55879;SDS011;41802;51.564;-1.838;2022-08-03T06:01:35;4.45;;;0.73;;
55879;SDS011;41802;51.564;-1.838;2022-08-03T06:04:03;5.28;;;0.90;;
55879;SDS011;41802;51.564;-1.838;2022-08-03T06:06:29;4.53;;;1.10;;
55879;SDS011;41802;51.564;-1.838;2022-08-03T06:08:56;3.72;;;0.80;;
55879;SDS011;41802;51.564;-1.838;2022-08-03T06:11:23;3.70;;;0.87;;
55879;SDS011;41802;51.564;-1.838;2022-08-03T06:13:49;3.58;;;0.60;;
55879;SDS011;41802;51.564;-1.838;2022-08-03T06:16:15;4.47;;;0.65;;
55879;SDS011;41802;51.564;-1.838;2022-08-03T06:18:42;5.18;;;0.65;;
55879;SDS011;41802;51.564;-1.838;2022-08-03T06:21:11;4.28;;;1.00;;
55879;SDS011;41802;51.564;-1.838;2022-08-03T06:23:37;6.70;;;0.77;;
55879;SDS011;41802;51.564;-1.838;2022-08-03T06:26:06;4.07;;;0.60;;
55879;SDS011;41802;51.564;-1.838;2022-08-03T06:28:33;5.93;;;0.82;;
55879;SDS011;41802;51.564;-1.838;2022-08-03T06:31:00;3.83;;;0.70;;
55879;SDS011;41802;51.564;-1.838;2022-08-03T06:33:27;4.13;;;0.70;;
55879;SDS011;41802;51.564;-1.838;2022-08-03T06:35:53;3.10;;;0.80;;
55879;SDS011;41802;51.564;-1.838;2022-08-03T06:38:21;6.30;;;1.00;;
55879;SDS011;41802;51.564;-1.838;2022-08-03T06:40:48;3.55;;;0.70;;
55879;SDS011;41802;51.564;-1.838;2022-08-03T06:43:14;3.88;;;0.60;;
55879;SDS011;41802;51.564;-1.838;2022-08-03T06:45:41;3.10;;;0.60;;
55879;SDS011;41802;51.564;-1.838;2022-08-03T06:48:08;4.00;;;0.60;;
55879;SDS011;41802;51.564;-1.838;2022-08-03T06:50:35;4.20;;;0.70;;
55879;SDS011;41802;51.564;-1.838;2022-08-03T06:53:02;2.83;;;0.70;;
55879;SDS011;41802;51.564;-1.838;2022-08-03T06:55:31;5.82;;;0.70;;
55879;SDS011;41802;51.564;-1.838;2022-08-03T06:57:58;3.20;;;0.70;;
55879;SDS011;41802;51.564;-1.838;2022-08-03T07:00:24;3.17;;;0.80;;
55879;SDS011;41802;51.564;-1.838;2022-08-03T07:02:52;3.20;;;0.47;;
55879;SDS011;41802;51.564;-1.838;2022-08-03T07:05:19;5.40;;;0.60;;
55879;SDS011;41802;51.564;-1.838;2022-08-03T07:07:47;3.50;;;1.00;;
55879;SDS011;41802;51.564;-1.838;2022-08-03T07:10:14;3.05;;;0.60;;
55879;SDS011;41802;51.564;-1.838;2022-08-03T07:12:42;3.17;;;0.87;;
55879;SDS011;41802;51.564;-1.838;2022-08-03T07:15:09;4.60;;;0.47;;
55879;SDS011;41802;51.564;-1.838;2022-08-03T07:17:36;4.70;;;0.73;;
55879;SDS011;41802;51.564;-1.838;2022-08-03T07:20:03;3.25;;;0.60;;
55879;SDS011;41802;51.564;-1.838;2022-08-03T07:22:30;3.53;;;0.70;;
55879;SDS011;41802;51.564;-1.838;2022-08-03T07:24:57;2.57;;;0.50;;
55879;SDS011;41802;51.564;-1.838;2022-08-03T07:27:26;3.75;;;0.50;;
55879;SDS011;41802;51.564;-1.838;2022-08-03T07:29:55;2.80;;;0.40;;
55879;SDS011;41802;51.564;-1.838;2022-08-03T07:32:22;4.00;;;0.50;;
55879;SDS011;41802;51.564;-1.838;2022-08-03T07:34:49;2.03;;;0.40;;
55879;SDS011;41802;51.564;-1.838;2022-08-03T07:37:16;3.13;;;0.60;;
55879;SDS011;41802;51.564;-1.838;2022-08-03T07:39:42;2.70;;;0.50;;
55879;SDS011;41802;51.564;-1.838;2022-08-03T07:42:09;4.32;;;0.50;;
55879;SDS011;41802;51.564;-1.838;2022-08-03T07:44:35;3.05;;;0.60;;
55879;SDS011;41802;51.564;-1.838;2022-08-03T07:47:04;2.30;;;0.40;;
55879;SDS011;41802;51.564;-1.838;2022-08-03T07:49:32;2.47;;;0.40;;
55879;SDS011;41802;51.564;-1.838;2022-08-03T07:51:59;1.75;;;0.30;;
55879;SDS011;41802;51.564;-1.838;2022-08-03T07:54:43;2.58;;;0.65;;
55879;SDS011;41802;51.564;-1.838;2022-08-03T07:57:09;2.10;;;0.47;;
55879;SDS011;41802;51.564;-1.838;2022-08-03T07:59:36;3.63;;;0.60;;
55879;SDS011;41802;51.564;-1.838;2022-08-03T08:02:06;3.20;;;0.63;;
55879;SDS011;41802;51.564;-1.838;2022-08-03T08:04:32;3.30;;;0.50;;
55879;SDS011;41802;51.564;-1.838;2022-08-03T08:06:59;3.38;;;0.43;;
55879;SDS011;41802;51.564;-1.838;2022-08-03T08:09:25;2.53;;;0.45;;
55879;SDS011;41802;51.564;-1.838;2022-08-03T08:11:52;2.78;;;0.50;;
55879;SDS011;41802;51.564;-1.838;2022-08-03T08:14:18;3.03;;;0.60;;
55879;SDS011;41802;51.564;-1.838;2022-08-03T08:16:45;2.40;;;0.40;;
55879;SDS011;41802;51.564;-1.838;2022-08-03T08:19:13;3.53;;;0.47;;
55879;SDS011;41802;51.564;-1.838;2022-08-03T08:21:40;2.45;;;0.50;;
55879;SDS011;41802;51.564;-1.838;2022-08-03T08:24:07;3.60;;;0.60;;
55879;SDS011;41802;51.564;-1.838;2022-08-03T08:26:33;2.55;;;0.60;;
55879;SDS011;41802;51.564;-1.838;2022-08-03T08:29:00;4.13;;;0.80;;
55879;SDS011;41802;51.564;-1.838;2022-08-03T08:31:26;2.80;;;0.60;;
55879;SDS011;41802;51.564;-1.838;2022-08-03T08:33:53;2.85;;;0.52;;
55879;SDS011;41802;51.564;-1.838;2022-08-03T08:36:21;2.50;;;0.40;;
55879;SDS011;41802;51.564;-1.838;2022-08-03T08:38:49;5.07;;;0.65;;
55879;SDS011;41802;51.564;-1.838;2022-08-03T08:41:15;2.83;;;0.40;;
55879;SDS011;41802;51.564;-1.838;2022-08-03T08:43:42;3.00;;;0.60;;
55879;SDS011;41802;51.564;-1.838;2022-08-03T08:46:09;2.55;;;0.50;;
55879;SDS011;41802;51.564;-1.838;2022-08-03T08:48:38;2.92;;;0.75;;
55879;SDS011;41802;51.564;-1.838;2022-08-03T08:51:05;2.45;;;0.50;;
55879;SDS011;41802;51.564;-1.838;2022-08-03T08:53:35;2.78;;;0.60;;
55879;SDS011;41802;51.564;-1.838;2022-08-03T08:56:02;3.60;;;0.50;;
55879;SDS011;41802;51.564;-1.838;2022-08-03T08:58:32;2.95;;;0.40;;
55879;SDS011;41802;51.564;-1.838;2022-08-03T09:01:00;3.47;;;0.50;;
55879;SDS011;41802;51.564;-1.838;2022-08-03T09:03:26;2.90;;;0.60;;
55879;SDS011;41802;51.564;-1.838;2022-08-03T09:05:53;2.70;;;0.50;;
55879;SDS011;41802;51.564;-1.838;2022-08-03T09:08:20;2.50;;;0.63;;
55879;SDS011;41802;51.564;-1.838;2022-08-03T09:10:49;2.40;;;0.55;;
55879;SDS011;41802;51.564;-1.838;2022-08-03T09:13:16;3.30;;;0.88;;
55879;SDS011;41802;51.564;-1.838;2022-08-03T09:15:43;3.95;;;0.50;;
55879;SDS011;41802;51.564;-1.838;2022-08-03T09:18:10;4.28;;;0.65;;
55879;SDS011;41802;51.564;-1.838;2022-08-03T09:20:37;3.30;;;0.70;;
55879;SDS011;41802;51.564;-1.838;2022-08-03T09:23:05;2.85;;;0.60;;
55879;SDS011;41802;51.564;-1.838;2022-08-03T09:25:33;2.80;;;0.80;;
55879;SDS011;41802;51.564;-1.838;2022-08-03T09:28:05;2.17;;;0.47;;
55879;SDS011;41802;51.564;-1.838;2022-08-03T09:30:32;2.80;;;0.70;;
55879;SDS011;41802;51.564;-1.838;2022-08-03T09:32:59;2.20;;;0.47;;
55879;SDS011;41802;51.564;-1.838;2022-08-03T09:35:26;3.10;;;0.60;;
55879;SDS011;41802;51.564;-1.838;2022-08-03T09:38:07;2.47;;;0.60;;
55879;SDS011;41802;51.564;-1.838;2022-08-03T09:40:34;2.30;;;0.50;;
55879;SDS011;41802;51.564;-1.838;2022-08-03T09:43:01;3.08;;;0.50;;
55879;SDS011;41802;51.564;-1.838;2022-08-03T09:45:29;3.53;;;0.80;;
55879;SDS011;41802;51.564;-1.838;2022-08-03T09:47:56;2.95;;;0.50;;
55879;SDS011;41802;51.564;-1.838;2022-08-03T09:50:24;3.08;;;0.50;;
55879;SDS011;41802;51.564;-1.838;2022-08-03T09:52:50;2.88;;;0.70;;
55879;SDS011;41802;51.564;-1.838;2022-08-03T09:55:17;3.65;;;0.60;;
55879;SDS011;41802;51.564;-1.838;2022-08-03T09:57:47;2.43;;;0.63;;
55879;SDS011;41802;51.564;-1.838;2022-08-03T10:00:15;3.17;;;0.60;;
55879;SDS011;41802;51.564;-1.838;2022-08-03T10:02:44;2.72;;;0.70;;
55879;SDS011;41802;51.564;-1.838;2022-08-03T10:05:11;2.97;;;0.52;;
55879;SDS011;41802;51.564;-1.838;2022-08-03T10:07:42;2.63;;;0.55;;
55879;SDS011;41802;51.564;-1.838;2022-08-03T10:10:09;2.80;;;0.53;;
55879;SDS011;41802;51.564;-1.838;2022-08-03T10:12:39;3.97;;;0.63;;
55879;SDS011;41802;51.564;-1.838;2022-08-03T10:15:06;2.70;;;0.60;;
55879;SDS011;41802;51.564;-1.838;2022-08-03T10:17:33;3.00;;;0.60;;
55879;SDS011;41802;51.564;-1.838;2022-08-03T10:20:00;3.57;;;0.70;;
55879;SDS011;41802;51.564;-1.838;2022-08-03T10:22:28;2.83;;;0.52;;
55879;SDS011;41802;51.564;-1.838;2022-08-03T10:24:58;2.63;;;0.68;;
55879;SDS011;41802;51.564;-1.838;2022-08-03T10:27:25;2.85;;;0.50;;
55879;SDS011;41802;51.564;-1.838;2022-08-03T10:29:54;3.15;;;0.90;;
55879;SDS011;41802;51.564;-1.838;2022-08-03T10:32:22;5.20;;;1.07;;
55879;SDS011;41802;51.564;-1.838;2022-08-03T10:34:50;2.45;;;0.68;;
55879;SDS011;41802;51.564;-1.838;2022-08-03T10:37:19;3.60;;;0.85;;
55879;SDS011;41802;51.564;-1.838;2022-08-03T10:39:47;5.45;;;0.73;;
55879;SDS011;41802;51.564;-1.838;2022-08-03T10:42:20;3.42;;;0.65;;
55879;SDS011;41802;51.564;-1.838;2022-08-03T10:44:49;2.53;;;0.70;;
55879;SDS011;41802;51.564;-1.838;2022-08-03T10:47:18;3.63;;;0.70;;
55879;SDS011;41802;51.564;-1.838;2022-08-03T10:49:46;2.70;;;0.63;;
55879;SDS011;41802;51.564;-1.838;2022-08-03T10:52:13;3.40;;;0.75;;
55879;SDS011;41802;51.564;-1.838;2022-08-03T10:54:41;6.07;;;0.90;;
55879;SDS011;41802;51.564;-1.838;2022-08-03T10:57:45;4.10;;;0.90;;
55879;SDS011;41802;51.564;-1.838;2022-08-03T11:00:12;4.50;;;0.98;;
55879;SDS011;41802;51.564;-1.838;2022-08-03T11:05:26;3.88;;;0.82;;
55879;SDS011;41802;51.564;-1.838;2022-08-03T11:10:36;3.30;;;0.93;;
55879;SDS011;41802;51.564;-1.838;2022-08-03T11:13:04;4.28;;;1.10;;
55879;SDS011;41802;51.564;-1.838;2022-08-03T11:15:32;4.40;;;1.33;;
55879;SDS011;41802;51.564;-1.838;2022-08-03T11:18:07;5.43;;;1.02;;
55879;SDS011;41802;51.564;-1.838;2022-08-03T11:20:47;4.03;;;0.95;;
55879;SDS011;41802;51.564;-1.838;2022-08-03T11:23:15;3.57;;;1.10;;
55879;SDS011;41802;51.564;-1.838;2022-08-03T11:28:28;5.85;;;1.05;;
55879;SDS011;41802;51.564;-1.838;2022-08-03T11:30:55;4.57;;;0.77;;
55879;SDS011;41802;51.564;-1.838;2022-08-03T11:33:29;3.20;;;0.80;;
55879;SDS011;41802;51.564;-1.838;2022-08-03T11:35:57;3.93;;;1.00;;
55879;SDS011;41802;51.564;-1.838;2022-08-03T11:38:23;2.80;;;0.88;;
55879;SDS011;41802;51.564;-1.838;2022-08-03T11:40:50;4.43;;;0.63;;
55879;SDS011;41802;51.564;-1.838;2022-08-03T11:46:01;4.30;;;1.50;;
55879;SDS011;41802;51.564;-1.838;2022-08-03T11:48:32;3.80;;;1.40;;
55879;SDS011;41802;51.564;-1.838;2022-08-03T11:50:59;4.88;;;1.42;;
55879;SDS011;41802;51.564;-1.838;2022-08-03T11:53:26;5.43;;;1.63;;
55879;SDS011;41802;51.564;-1.838;2022-08-03T11:55:52;4.68;;;1.75;;
55879;SDS011;41802;51.564;-1.838;2022-08-03T11:58:19;3.63;;;1.20;;
55879;SDS011;41802;51.564;-1.838;2022-08-03T12:00:47;5.72;;;2.25;;
55879;SDS011;41802;51.564;-1.838;2022-08-03T12:03:15;4.70;;;2.13;;
55879;SDS011;41802;51.564;-1.838;2022-08-03T12:05:46;4.63;;;1.60;;
55879;SDS011;41802;51.564;-1.838;2022-08-03T12:08:13;5.43;;;1.40;;
55879;SDS011;41802;51.564;-1.838;2022-08-03T12:10:44;4.63;;;1.63;;
55879;SDS011;41802;51.564;-1.838;2022-08-03T12:13:12;4.55;;;1.63;;
55879;SDS011;41802;51.564;-1.838;2022-08-03T12:15:38;4.67;;;1.20;;
55879;SDS011;41802;51.564;-1.838;2022-08-03T12:18:11;5.10;;;1.40;;
55879;SDS011;41802;51.564;-1.838;2022-08-03T12:20:40;4.82;;;1.55;;
55879;SDS011;41802;51.564;-1.838;2022-08-03T12:23:06;4.72;;;1.35;;
55879;SDS011;41802;51.564;-1.838;2022-08-03T12:25:34;4.33;;;1.50;;
55879;SDS011;41802;51.564;-1.838;2022-08-03T12:28:07;4.03;;;1.05;;
55879;SDS011;41802;51.564;-1.838;2022-08-03T12:30:34;4.88;;;1.00;;
55879;SDS011;41802;51.564;-1.838;2022-08-03T12:33:10;3.65;;;1.00;;
55879;SDS011;41802;51.564;-1.838;2022-08-03T12:35:36;3.70;;;0.93;;
55879;SDS011;41802;51.564;-1.838;2022-08-03T12:38:04;4.77;;;1.23;;
55879;SDS011;41802;51.564;-1.838;2022-08-03T12:40:31;4.93;;;1.10;;
55879;SDS011;41802;51.564;-1.838;2022-08-03T12:42:57;4.65;;;1.00;;
55879;SDS011;41802;51.564;-1.838;2022-08-03T12:45:24;4.22;;;1.10;;
55879;SDS011;41802;51.564;-1.838;2022-08-03T12:47:52;4.28;;;1.17;;
55879;SDS011;41802;51.564;-1.838;2022-08-03T12:50:22;5.93;;;1.10;;
55879;SDS011;41802;51.564;-1.838;2022-08-03T12:52:49;4.97;;;1.42;;
55879;SDS011;41802;51.564;-1.838;2022-08-03T12:55:19;5.55;;;1.77;;
55879;SDS011;41802;51.564;-1.838;2022-08-03T12:57:47;4.28;;;1.40;;
55879;SDS011;41802;51.564;-1.838;2022-08-03T13:00:14;5.45;;;1.33;;
55879;SDS011;41802;51.564;-1.838;2022-08-03T13:02:41;4.50;;;1.30;;
55879;SDS011;41802;51.564;-1.838;2022-08-03T13:05:08;4.45;;;1.63;;
55879;SDS011;41802;51.564;-1.838;2022-08-03T13:07:38;5.03;;;1.17;;
55879;SDS011;41802;51.564;-1.838;2022-08-03T13:10:05;6.00;;;1.90;;
55879;SDS011;41802;51.564;-1.838;2022-08-03T13:12:44;5.10;;;2.10;;
55879;SDS011;41802;51.564;-1.838;2022-08-03T13:15:13;4.67;;;1.50;;
55879;SDS011;41802;51.564;-1.838;2022-08-03T13:17:40;7.82;;;1.90;;
55879;SDS011;41802;51.564;-1.838;2022-08-03T13:20:06;8.90;;;2.25;;
55879;SDS011;41802;51.564;-1.838;2022-08-03T13:22:33;7.97;;;2.75;;
55879;SDS011;41802;51.564;-1.838;2022-08-03T13:25:00;5.72;;;2.30;;
55879;SDS011;41802;51.564;-1.838;2022-08-03T13:27:27;6.20;;;2.43;;
55879;SDS011;41802;51.564;-1.838;2022-08-03T13:29:56;7.05;;;2.60;;
55879;SDS011;41802;51.564;-1.838;2022-08-03T13:32:22;5.90;;;2.22;;
55879;SDS011;41802;51.564;-1.838;2022-08-03T13:34:49;8.13;;;2.50;;
55879;SDS011;41802;51.564;-1.838;2022-08-03T13:37:15;5.35;;;1.98;;
55879;SDS011;41802;51.564;-1.838;2022-08-03T13:39:42;8.67;;;2.77;;
55879;SDS011;41802;51.564;-1.838;2022-08-03T13:42:08;9.02;;;2.55;;
55879;SDS011;41802;51.564;-1.838;2022-08-03T13:44:35;7.70;;;2.30;;
55879;SDS011;41802;51.564;-1.838;2022-08-03T13:47:04;6.90;;;2.03;;
55879;SDS011;41802;51.564;-1.838;2022-08-03T13:49:30;5.20;;;2.03;;
55879;SDS011;41802;51.564;-1.838;2022-08-03T13:51:57;8.77;;;2.23;;
55879;SDS011;41802;51.564;-1.838;2022-08-03T13:54:23;6.28;;;1.92;;
55879;SDS011;41802;51.564;-1.838;2022-08-03T13:56:50;7.15;;;2.85;;
55879;SDS011;41802;51.564;-1.838;2022-08-03T13:59:17;6.57;;;2.20;;
55879;SDS011;41802;51.564;-1.838;2022-08-03T14:01:44;6.70;;;2.25;;
55879;SDS011;41802;51.564;-1.838;2022-08-03T14:04:12;6.77;;;2.40;;
55879;SDS011;41802;51.564;-1.838;2022-08-03T14:06:39;5.22;;;1.90;;
55879;SDS011;41802;51.564;-1.838;2022-08-03T14:09:06;5.28;;;2.00;;
55879;SDS011;41802;51.564;-1.838;2022-08-03T14:11:32;6.28;;;2.08;;
55879;SDS011;41802;51.564;-1.838;2022-08-03T14:13:59;8.57;;;2.13;;
55879;SDS011;41802;51.564;-1.838;2022-08-03T14:16:25;5.93;;;2.00;;
55879;SDS011;41802;51.564;-1.838;2022-08-03T14:18:51;5.55;;;2.13;;
55879;SDS011;41802;51.564;-1.838;2022-08-03T14:21:19;8.00;;;2.43;;
55879;SDS011;41802;51.564;-1.838;2022-08-03T14:23:46;5.40;;;1.85;;
55879;SDS011;41802;51.564;-1.838;2022-08-03T14:26:13;5.60;;;2.25;;
55879;SDS011;41802;51.564;-1.838;2022-08-03T14:28:42;7.78;;;1.98;;
55879;SDS011;41802;51.564;-1.838;2022-08-03T14:31:08;5.77;;;2.10;;
55879;SDS011;41802;51.564;-1.838;2022-08-03T14:33:35;5.60;;;1.55;;
55879;SDS011;41802;51.564;-1.838;2022-08-03T14:36:02;4.80;;;1.73;;
55879;SDS011;41802;51.564;-1.838;2022-08-03T14:38:31;6.78;;;1.80;;
55879;SDS011;41802;51.564;-1.838;2022-08-03T14:40:57;6.05;;;1.70;;
55879;SDS011;41802;51.564;-1.838;2022-08-03T14:43:24;6.47;;;1.70;;
55879;SDS011;41802;51.564;-1.838;2022-08-03T14:45:50;5.90;;;1.67;;
55879;SDS011;41802;51.564;-1.838;2022-08-03T14:48:17;6.57;;;1.73;;